createdAt,value
2022-10-05T00:02:41.339Z,5.98
2022-10-05T00:05:45.439Z,5.84
2022-10-05T00:08:47.631Z,5.96
2022-10-05T00:11:50.929Z,6.05
2022-10-05T00:14:57.825Z,5.97
2022-10-05T00:18:02.963Z,6.10
2022-10-05T00:21:25.553Z,5.97
2022-10-05T00:24:27.714Z,6.10
2022-10-05T00:27:36.672Z,6.13
2022-10-05T00:30:38.876Z,6.12
2022-10-05T00:33:41.022Z,6.04
2022-10-05T00:36:43.937Z,6.13
2022-10-05T00:39:46.407Z,5.85
2022-10-05T00:42:54.334Z,5.68
2022-10-05T00:46:07.803Z,5.78
2022-10-05T00:50:05.663Z,5.71
2022-10-05T00:53:29.733Z,5.76
2022-10-05T00:56:41.931Z,5.87
2022-10-05T01:00:07.085Z,5.91
2022-10-05T01:03:23.671Z,5.77
2022-10-05T01:06:33.437Z,5.78
2022-10-05T01:09:51.151Z,5.89
2022-10-05T01:13:11.592Z,5.80
2022-10-05T01:16:29.718Z,5.70
2022-10-05T01:19:49.961Z,5.78
2022-10-05T01:23:08.585Z,5.63
2022-10-05T01:26:55.587Z,5.71
2022-10-05T01:30:07.130Z,5.39
2022-10-05T01:33:12.391Z,5.43
2022-10-05T01:36:36.823Z,5.42
2022-10-05T01:39:58.498Z,5.53
2022-10-05T01:43:15.870Z,5.50
2022-10-05T01:46:25.353Z,5.55
2022-10-05T01:49:33.729Z,5.64
2022-10-05T01:52:50.842Z,5.79
2022-10-05T01:56:28.979Z,5.78
2022-10-05T02:00:04.724Z,5.81
2022-10-05T02:03:17.105Z,5.76
2022-10-05T02:06:28.356Z,5.84
2022-10-05T02:09:34.437Z,5.86
2022-10-05T02:12:38.051Z,5.84
2022-10-05T02:15:58.324Z,5.89
2022-10-05T02:19:11.943Z,5.77
2022-10-05T02:22:24.569Z,5.77
2022-10-05T02:25:30.547Z,5.89
2022-10-05T02:28:52.675Z,5.93
2022-10-05T02:31:57.866Z,5.84
2022-10-05T02:35:06.589Z,5.74
2022-10-05T02:38:24.454Z,5.75
2022-10-05T02:42:02.192Z,5.73
2022-10-05T02:45:07.413Z,5.77
2022-10-05T02:48:12.460Z,5.75
2022-10-05T02:51:24.722Z,5.78
2022-10-05T02:54:26.907Z,5.75
2022-10-05T02:57:36.492Z,5.70
2022-10-05T03:01:00.742Z,5.73
2022-10-05T03:04:15.333Z,5.73
2022-10-05T03:07:33.594Z,5.70
2022-10-05T03:10:39.986Z,5.59
2022-10-05T03:14:05.160Z,5.70
2022-10-05T03:17:15.050Z,5.61
2022-10-05T03:20:23.478Z,5.53
2022-10-05T03:23:34.618Z,5.40
2022-10-05T03:26:59.607Z,5.43
2022-10-05T03:30:17.797Z,5.42
2022-10-05T03:33:25.666Z,5.35
2022-10-05T03:36:52.226Z,5.22
2022-10-05T03:40:07.421Z,5.34
2022-10-05T03:43:46.939Z,5.24
2022-10-05T03:47:09.006Z,5.19
2022-10-05T03:50:32.641Z,5.23
2022-10-05T03:53:56.916Z,5.24
2022-10-05T03:57:07.145Z,5.21
2022-10-05T04:00:16.190Z,5.22
2022-10-05T04:03:35.816Z,5.25
2022-10-05T04:06:46.785Z,5.29
2022-10-05T04:09:51.298Z,5.27
2022-10-05T04:13:18.764Z,5.16
2022-10-05T04:16:31.633Z,5.23
2022-10-05T04:19:39.671Z,5.30
2022-10-05T04:23:11.554Z,5.24
2022-10-05T04:26:18.977Z,5.17
2022-10-05T04:29:38.459Z,5.26
2022-10-05T04:32:57.524Z,5.27
2022-10-05T04:36:08.947Z,5.23
2022-10-05T04:39:24.503Z,5.19
2022-10-05T04:43:09.981Z,5.19
2022-10-05T04:46:36.823Z,5.23
2022-10-05T04:49:57.880Z,5.21
2022-10-05T04:53:25.786Z,5.29
2022-10-05T04:56:38.949Z,5.02
2022-10-05T04:59:53.233Z,5.10
2022-10-05T05:03:13.469Z,5.09
2022-10-05T05:06:33.170Z,5.11
2022-10-05T05:10:04.513Z,5.14
2022-10-05T05:13:30.553Z,5.19
2022-10-05T05:16:34.178Z,5.18
2022-10-05T05:19:50.724Z,5.27
2022-10-05T05:23:47.298Z,5.30
2022-10-05T05:27:17.012Z,5.39
2022-10-05T05:30:21.418Z,5.60
2022-10-05T05:33:52.608Z,5.76
2022-10-05T05:37:13.319Z,5.75
2022-10-05T05:40:39.461Z,5.66
2022-10-05T05:43:44.626Z,5.65
2022-10-05T05:47:03.596Z,5.73
2022-10-05T05:50:10.393Z,5.96
2022-10-05T05:53:20.914Z,6.46
2022-10-05T05:56:46.209Z,6.66
2022-10-05T06:00:07.628Z,6.75
2022-10-05T06:03:15.923Z,7.24
2022-10-05T06:06:18.783Z,7.45
2022-10-05T06:09:22.727Z,7.42
2022-10-05T06:12:30.241Z,7.61
2022-10-05T06:15:40.515Z,7.83
2022-10-05T06:18:46.944Z,8.23
2022-10-05T06:22:12.851Z,8.44
2022-10-05T06:25:30.025Z,8.53
2022-10-05T06:28:32.564Z,8.43
2022-10-05T06:31:49.396Z,8.26
2022-10-05T06:35:01.796Z,8.39
2022-10-05T06:38:21.066Z,8.71
2022-10-05T06:41:28.948Z,8.93
2022-10-05T06:44:43.381Z,9.26
2022-10-05T06:47:51.542Z,9.64
2022-10-05T06:51:11.834Z,9.81
2022-10-05T06:54:38.044Z,10.07
2022-10-05T06:57:58.856Z,10.36
2022-10-05T07:01:17.760Z,10.33
2022-10-05T07:05:09.549Z,10.44
2022-10-05T07:08:23.338Z,10.59
2022-10-05T07:11:40.800Z,10.97
2022-10-05T07:14:51.789Z,11.12
2022-10-05T07:18:06.068Z,11.38
2022-10-05T07:21:40.005Z,11.73
2022-10-05T07:24:55.230Z,11.49
2022-10-05T07:28:06.494Z,11.56
2022-10-05T07:31:37.839Z,11.44
2022-10-05T07:34:59.116Z,11.59
2022-10-05T07:38:08.675Z,11.76
2022-10-05T07:41:20.249Z,11.68
2022-10-05T07:44:29.926Z,11.86
2022-10-05T07:47:52.186Z,12.34
2022-10-05T07:51:00.178Z,12.15
2022-10-05T07:54:02.263Z,12.42
2022-10-05T07:57:15.512Z,12.60
2022-10-05T08:00:22.398Z,12.79
2022-10-05T08:03:39.846Z,13.42
2022-10-05T08:07:09.939Z,13.47
2022-10-05T08:10:45.993Z,13.70
2022-10-05T08:14:17.212Z,13.86
2022-10-05T08:17:37.673Z,14.22
2022-10-05T08:20:44.916Z,14.58
2022-10-05T08:23:58.958Z,14.83
2022-10-05T08:27:10.202Z,15.01
2022-10-05T08:30:14.060Z,15.12
2022-10-05T08:33:17.678Z,15.41
2022-10-05T08:36:27.532Z,15.57
2022-10-05T08:39:34.241Z,15.80
2022-10-05T08:43:01.770Z,15.85
2022-10-05T08:46:41.648Z,15.96
2022-10-05T08:50:16.043Z,15.77
2022-10-05T08:53:36.646Z,15.73
2022-10-05T08:56:48.567Z,15.83
2022-10-05T08:59:58.175Z,15.90
2022-10-05T09:03:18.906Z,16.06
2022-10-05T09:06:42.499Z,16.11
2022-10-05T09:10:01.421Z,16.10
2022-10-05T09:13:17.353Z,15.89
2022-10-05T09:16:44.534Z,15.95
2022-10-05T09:20:08.337Z,15.84
2022-10-05T09:23:16.540Z,15.82
2022-10-05T09:26:40.416Z,15.99
2022-10-05T09:30:10.600Z,16.04
2022-10-05T09:33:13.654Z,16.44
2022-10-05T09:36:34.391Z,16.59
2022-10-05T09:40:03.294Z,16.63
2022-10-05T09:43:09.028Z,16.96
2022-10-05T09:46:20.370Z,17.12
2022-10-05T09:49:28.693Z,17.12
2022-10-05T09:52:44.320Z,16.92
2022-10-05T09:56:44.149Z,16.82
2022-10-05T10:03:18.687Z,16.60
2022-10-05T10:06:29.827Z,16.56
2022-10-05T10:09:43.397Z,16.56
2022-10-05T10:13:25.002Z,17.02
2022-10-05T10:16:53.759Z,17.26
2022-10-05T10:20:20.447Z,17.38
2022-10-05T10:23:34.426Z,17.39
2022-10-05T10:26:56.983Z,17.49
2022-10-05T10:30:19.056Z,17.04
2022-10-05T10:33:36.792Z,17.13
2022-10-05T10:37:12.574Z,16.69
2022-10-05T10:40:26.079Z,16.51
2022-10-05T10:43:50.600Z,16.28
2022-10-05T10:47:30.418Z,16.48
2022-10-05T10:50:48.784Z,16.77
2022-10-05T10:54:02.559Z,16.72
2022-10-05T10:57:10.711Z,16.63
2022-10-05T11:00:44.202Z,16.55
2022-10-05T11:04:42.140Z,16.79
2022-10-05T11:08:15.767Z,17.15
2022-10-05T11:11:30.950Z,16.98
2022-10-05T11:14:46.426Z,17.02
2022-10-05T11:17:56.498Z,17.03
2022-10-05T11:21:20.897Z,16.96
2022-10-05T11:24:58.871Z,16.93
2022-10-05T11:28:38.411Z,16.80
2022-10-05T11:32:08.071Z,17.08
2022-10-05T11:35:55.114Z,17.09
2022-10-05T11:39:08.929Z,17.38
2022-10-05T11:42:11.035Z,17.24
2022-10-05T11:45:22.354Z,17.26
2022-10-05T11:48:33.273Z,17.37
2022-10-05T11:51:51.224Z,17.52
2022-10-05T11:55:11.349Z,17.68
2022-10-05T11:58:24.706Z,17.52
2022-10-05T12:01:45.004Z,17.59
2022-10-05T12:05:15.985Z,17.38
2022-10-05T12:08:44.337Z,17.59
2022-10-05T12:12:15.637Z,17.60
2022-10-05T12:15:39.545Z,17.42
2022-10-05T12:18:47.222Z,17.44
2022-10-05T12:21:52.572Z,17.36
2022-10-05T12:25:15.126Z,17.31
2022-10-05T12:28:23.890Z,17.37
2022-10-05T12:31:52.476Z,17.09
2022-10-05T12:35:48.047Z,16.94
2022-10-05T12:39:13.446Z,17.06
2022-10-05T12:42:24.693Z,16.99
2022-10-05T12:45:31.094Z,17.25
2022-10-05T12:48:56.272Z,17.32
2022-10-05T12:52:00.757Z,17.22
2022-10-05T12:55:13.520Z,17.12
2022-10-05T12:58:28.320Z,17.17
2022-10-05T13:01:39.181Z,16.88
2022-10-05T13:04:44.331Z,16.86
2022-10-05T13:08:08.531Z,16.93
2022-10-05T13:11:36.383Z,16.83
2022-10-05T13:15:22.536Z,16.90
2022-10-05T13:18:49.861Z,16.95
2022-10-05T13:21:55.208Z,17.12
2022-10-05T13:25:32.948Z,17.22
2022-10-05T13:28:44.654Z,17.24
2022-10-05T13:31:51.221Z,17.30
2022-10-05T13:35:17.321Z,17.19
2022-10-05T13:38:22.192Z,17.31
2022-10-05T13:41:46.093Z,17.25
2022-10-05T13:44:51.493Z,17.12
2022-10-05T13:48:15.626Z,17.11
2022-10-05T13:51:35.078Z,17.22
2022-10-05T13:54:37.659Z,17.19
2022-10-05T13:57:51.641Z,17.39
2022-10-05T14:00:59.844Z,17.28
2022-10-05T14:04:07.027Z,17.19
2022-10-05T14:07:30.167Z,17.21
2022-10-05T14:10:42.916Z,17.19
2022-10-05T14:13:46.870Z,17.10
2022-10-05T14:17:00.321Z,17.03
2022-10-05T14:20:20.301Z,16.92
2022-10-05T14:23:25.647Z,16.98
2022-10-05T14:26:35.908Z,16.95
2022-10-05T14:29:38.819Z,17.05
2022-10-05T14:32:47.284Z,16.93
2022-10-05T14:35:54.716Z,16.84
2022-10-05T14:39:00.558Z,16.67
2022-10-05T14:42:13.901Z,16.60
2022-10-05T14:45:18.948Z,16.65
2022-10-05T14:48:21.950Z,16.68
2022-10-05T14:51:31.955Z,16.67
2022-10-05T14:54:47.945Z,16.65
2022-10-05T14:58:23.803Z,16.48
2022-10-05T15:01:39.263Z,16.52
2022-10-05T15:04:46.305Z,16.31
2022-10-05T15:07:49.585Z,16.15
2022-10-05T15:11:06.474Z,16.03
2022-10-05T15:14:22.084Z,16.12
2022-10-05T15:17:28.422Z,16.09
2022-10-05T15:20:49.339Z,15.91
2022-10-05T15:24:05.269Z,15.85
2022-10-05T15:27:15.952Z,15.94
2022-10-05T15:30:18.591Z,15.86
2022-10-05T15:33:43.214Z,15.82
2022-10-05T15:36:50.213Z,15.79
2022-10-05T15:39:55.718Z,15.77
2022-10-05T15:43:03.944Z,15.63
2022-10-05T15:46:17.375Z,15.62
2022-10-05T15:49:37.734Z,15.61
2022-10-05T15:52:58.945Z,15.50
2022-10-05T15:56:27.024Z,15.46
2022-10-05T15:59:41.400Z,15.36
2022-10-05T16:03:19.663Z,15.21
2022-10-05T16:06:48.729Z,15.20
2022-10-05T16:10:03.921Z,15.10
2022-10-05T16:13:27.073Z,15.01
2022-10-05T16:16:37.486Z,14.94
2022-10-05T16:19:48.046Z,14.90
2022-10-05T16:22:59.754Z,14.84
2022-10-05T16:26:11.613Z,14.74
2022-10-05T16:29:33.010Z,14.73
2022-10-05T16:32:39.351Z,14.63
2022-10-05T16:36:04.341Z,14.64
2022-10-05T16:39:26.665Z,14.47
2022-10-05T16:43:13.266Z,14.48
2022-10-05T16:46:30.951Z,14.40
2022-10-05T16:49:39.092Z,14.29
2022-10-05T16:52:42.927Z,14.18
2022-10-05T16:55:48.385Z,14.05
2022-10-05T16:58:53.328Z,14.06
2022-10-05T17:02:29.422Z,13.86
2022-10-05T17:05:34.886Z,13.82
2022-10-05T17:09:01.533Z,13.81
2022-10-05T17:12:38.278Z,13.78
2022-10-05T17:16:00.810Z,13.67
2022-10-05T17:19:21.100Z,13.70
2022-10-05T17:22:46.572Z,13.58
2022-10-05T17:26:14.900Z,13.58
2022-10-05T17:29:24.851Z,13.58
2022-10-05T17:32:36.255Z,13.47
2022-10-05T17:35:43.606Z,13.46
2022-10-05T17:38:53.085Z,13.47
2022-10-05T17:42:27.725Z,13.45
2022-10-05T17:45:29.990Z,13.36
2022-10-05T17:48:50.365Z,13.16
2022-10-05T17:52:11.654Z,12.97
2022-10-05T17:55:28.119Z,12.60
2022-10-05T17:58:30.231Z,12.47
2022-10-05T18:01:34.901Z,12.43
2022-10-05T18:04:42.232Z,12.35
2022-10-05T18:08:13.154Z,12.22
2022-10-05T18:11:36.674Z,12.09
2022-10-05T18:14:55.113Z,11.98
2022-10-05T18:18:33.259Z,12.22
2022-10-05T18:21:38.164Z,12.20
2022-10-05T18:24:53.086Z,12.22
2022-10-05T18:28:22.778Z,12.34
2022-10-05T18:31:28.411Z,12.42
2022-10-05T18:35:02.030Z,12.37
2022-10-05T18:38:31.307Z,12.41
2022-10-05T18:42:02.855Z,12.37
2022-10-05T18:45:21.424Z,12.29
2022-10-05T18:48:47.900Z,12.24
2022-10-05T18:51:57.659Z,12.22
2022-10-05T18:55:10.664Z,12.22
2022-10-05T18:58:25.989Z,12.16
2022-10-05T19:02:02.728Z,12.11
2022-10-05T19:05:46.849Z,11.99
2022-10-05T19:09:20.562Z,11.96
2022-10-05T19:12:35.956Z,11.90
2022-10-05T19:15:44.374Z,11.69
2022-10-05T19:19:07.361Z,11.63
2022-10-05T19:22:37.483Z,11.57
2022-10-05T19:25:46.220Z,11.50
2022-10-05T19:29:07.904Z,11.38
2022-10-05T19:32:46.833Z,11.32
2022-10-05T19:35:58.254Z,11.24
2022-10-05T19:39:10.491Z,11.18
2022-10-05T19:42:25.087Z,11.26
2022-10-05T19:45:33.622Z,11.16
2022-10-05T19:48:44.518Z,11.07
2022-10-05T19:51:49.294Z,10.97
2022-10-05T19:55:24.203Z,10.90
2022-10-05T19:58:28.763Z,10.80
2022-10-05T20:01:36.497Z,10.73
2022-10-05T20:04:44.642Z,10.71
2022-10-05T20:07:46.924Z,10.66
2022-10-05T20:11:11.246Z,10.53
2022-10-05T20:14:16.798Z,10.60
2022-10-05T20:17:47.690Z,10.64
2022-10-05T20:20:50.219Z,10.43
2022-10-05T20:24:07.796Z,10.47
2022-10-05T20:27:46.592Z,10.53
2022-10-05T20:30:48.735Z,10.55
2022-10-05T20:33:50.914Z,10.55
2022-10-05T20:36:53.088Z,10.56
2022-10-05T20:39:55.253Z,10.46
2022-10-05T20:42:58.431Z,10.48
2022-10-05T20:46:00.596Z,10.52
2022-10-05T20:49:03.215Z,10.52
2022-10-05T20:52:06.331Z,10.47
2022-10-05T20:55:11.319Z,10.43
2022-10-05T20:58:13.502Z,10.40
2022-10-05T21:01:19.597Z,10.39
2022-10-05T21:04:24.044Z,10.44
2022-10-05T21:07:26.312Z,10.26
2022-10-05T21:10:28.439Z,10.29
2022-10-05T21:13:30.579Z,10.42
2022-10-05T21:16:34.074Z,10.42
2022-10-05T21:19:40.417Z,10.28
2022-10-05T21:22:42.740Z,10.31
2022-10-05T21:25:45.338Z,10.25
2022-10-05T21:28:47.532Z,10.28
2022-10-05T21:31:49.812Z,10.28
2022-10-05T21:34:52.067Z,10.25
2022-10-05T21:37:54.250Z,10.27
2022-10-05T21:40:56.502Z,10.26
2022-10-05T21:43:58.645Z,10.22
2022-10-05T21:47:01.207Z,10.15
2022-10-05T21:50:05.229Z,10.14
2022-10-05T21:53:09.316Z,10.07
2022-10-05T21:56:14.825Z,10.07
2022-10-05T21:59:19.262Z,10.14
2022-10-05T22:02:21.431Z,10.13
2022-10-05T22:05:23.618Z,10.12
2022-10-05T22:08:28.728Z,10.09
2022-10-05T22:11:31.668Z,10.11
2022-10-05T22:14:33.818Z,10.07
2022-10-05T22:17:36.192Z,10.04
2022-10-05T22:20:38.457Z,10.12
2022-10-05T22:23:42.312Z,10.17
2022-10-05T22:26:46.788Z,10.24
2022-10-05T22:29:49.247Z,10.20
2022-10-05T22:32:51.526Z,10.21
2022-10-05T22:35:54.161Z,10.15
2022-10-05T22:38:56.442Z,10.21
2022-10-05T22:41:58.787Z,10.23
2022-10-05T22:45:01.007Z,10.21
2022-10-05T22:48:03.808Z,10.16
2022-10-05T22:51:06.650Z,10.17
2022-10-05T22:58:31.566Z,10.14
2022-10-05T23:01:33.962Z,10.08
2022-10-05T23:04:36.418Z,10.12
2022-10-05T23:07:41.693Z,10.09
2022-10-05T23:10:43.965Z,10.12
2022-10-05T23:13:46.252Z,10.09
2022-10-05T23:16:48.569Z,10.12
2022-10-05T23:19:50.874Z,10.24
2022-10-05T23:22:53.064Z,10.24
2022-10-05T23:26:01.927Z,10.15
2022-10-05T23:29:04.216Z,10.09
2022-10-05T23:32:06.443Z,10.07
2022-10-05T23:35:10.472Z,10.09
2022-10-05T23:38:12.644Z,10.05
2022-10-05T23:41:16.010Z,10.01
2022-10-05T23:44:18.425Z,10.03
2022-10-05T23:47:20.580Z,10.07
2022-10-05T23:50:25.074Z,10.08
2022-10-05T23:53:27.211Z,10.07
2022-10-05T23:56:29.377Z,10.01
2022-10-05T23:59:31.554Z,9.93
